Dades meteomassalio
Diari Summary for Agost 30, 2017 Units:  Metric    English   Both
« Previous Day
Next Day »
Diari Semanal Mensual Anual Personalitzat
  Maxima: Minima: Mijana:
Temperatura: 28.3 °C 16.7 °C 20.9 °C
Rosada: 18.4 °C 12.1 °C 15 °C
Humitat: 92 % 44 % 71 %
Velocitat del vent: 38.9 km/h 0.0 km/h 6.3 km/h
Racha vent: 38.9 km/h - -
Vent:- - SSE
Pressio: 1018.8 hPa 1013.8 hPa -
Pluja: 30.5 mm    
Historical Graphs
 
 
Tabular Data for Agost 30, 2017
Time Temperature Dew Point Pressure Wind Wind Speed Wind Gust Humidity Rainfall Rate (Hourly) solar Conditions
00:01 18.3 °C 12.1 °C 1016.5 hPa Calm     67 % 0.0 mm 0.0 W/m2 RA
00:06 18.3 °C 12.1 °C 1016.8 hPa Calm     67 % 0.0 mm 0.0 W/m2 CLR
00:11 18.3 °C 12.8 °C 1017.2 hPa Calm     70 % 0.0 mm 0.0 W/m2 CLR
00:16 18.3 °C 13.2 °C 1017.2 hPa NW 5.6 km/h   72 % 0.0 mm 0.0 W/m2 CLR
00:21 17.8 °C 12.7 °C 1017.2 hPa Calm     72 % 0.0 mm 0.0 W/m2 CLR
00:26 17.8 °C 12.9 °C 1017.2 hPa Calm     73 % 0.0 mm 0.0 W/m2 CLR
00:31 17.8 °C 12.9 °C 1017.2 hPa Calm     73 % 0.0 mm 0.0 W/m2 CLR
00:36 17.8 °C 12.9 °C 1017.2 hPa Calm     73 % 0.0 mm 0.0 W/m2 CLR
00:41 17.8 °C 13.1 °C 1016.8 hPa Calm     74 % 0.0 mm 0.0 W/m2 CLR
00:47 17.8 °C 13.3 °C 1016.8 hPa Calm     75 % 0.0 mm 0.0 W/m2 CLR
00:52 17.8 °C 13.3 °C 1016.8 hPa Calm     75 % 0.0 mm 0.0 W/m2 CLR
00:57 17.8 °C 13.7 °C 1016.8 hPa Calm     77 % 0.0 mm 0.0 W/m2 CLR
01:02 17.8 °C 13.7 °C 1016.8 hPa Calm     77 % 0.0 mm 0.0 W/m2 CLR
01:07 17.8 °C 13.5 °C 1016.8 hPa Calm     76 % 0.0 mm 0.0 W/m2 CLR
01:12 17.8 °C 13.5 °C 1016.8 hPa Calm     76 % 0.0 mm 0.0 W/m2 CLR
01:17 17.8 °C 13.5 °C 1017.2 hPa SSW 8.0 km/h 8.0 km/h 76 % 0.0 mm 0.0 W/m2 CLR
01:22 18.3 °C 13.8 °C 1017.8 hPa South 1.9 km/h 1.9 km/h 75 % 0.0 mm 0.0 W/m2 CLR
01:27 18.3 °C 13.8 °C 1017.8 hPa Calm     75 % 0.0 mm 0.0 W/m2 CLR
01:32 18.9 °C 14.6 °C 1017.8 hPa SSE 14.8 km/h 14.8 km/h 76 % 0.0 mm 0.0 W/m2 CLR
01:37 18.9 °C 14.6 °C 1017.8 hPa Calm     76 % 0.0 mm 0.0 W/m2 CLR
01:42 18.9 °C 14.3 °C 1017.8 hPa Calm     75 % 0.0 mm 0.0 W/m2 CLR
01:47 18.9 °C 14.6 °C 1017.5 hPa Calm     76 % 0.0 mm 0.0 W/m2 CLR
01:52 18.3 °C 13.8 °C 1017.8 hPa Calm     75 % 0.0 mm 0.0 W/m2 CLR
01:57 18.3 °C 13.8 °C 1017.8 hPa Calm     75 % 0.0 mm 0.0 W/m2 CLR
02:02 18.3 °C 13.8 °C 1018.2 hPa Calm     75 % 0.0 mm 0.0 W/m2 CLR
02:03 18.3 °C 14.0 °C 1018.2 hPa Calm     76 % 0.0 mm 0.0 W/m2 CLR
02:08 18.3 °C 14.0 °C 1017.8 hPa Calm     76 % 0.0 mm 0.0 W/m2 CLR
02:13 18.3 °C 14.0 °C 1017.8 hPa ENE 3.7 km/h 3.7 km/h 76 % 0.0 mm 0.0 W/m2 CLR
02:18 17.8 °C 13.7 °C 1017.8 hPa NE 3.2 km/h 3.2 km/h 77 % 0.0 mm 0.0 W/m2 CLR
02:23 17.8 °C 13.9 °C 1017.8 hPa SSW 5.6 km/h 5.6 km/h 78 % 0.0 mm 0.0 W/m2 CLR
02:28 17.8 °C 13.7 °C 1017.8 hPa Calm     77 % 0.0 mm 0.0 W/m2 CLR
02:33 17.8 °C 13.7 °C 1017.8 hPa Calm     77 % 0.0 mm 0.0 W/m2 CLR
02:38 17.8 °C 13.9 °C 1017.8 hPa Calm     78 % 0.0 mm 0.0 W/m2 CLR
02:43 17.8 °C 13.9 °C 1017.8 hPa Calm     78 % 0.0 mm 0.0 W/m2 CLR
02:48 17.8 °C 13.9 °C 1017.8 hPa Calm     78 % 0.0 mm 0.0 W/m2 CLR
02:58 17.8 °C 14.3 °C 1018.2 hPa Calm     80 % 0.0 mm 0.0 W/m2 CLR
03:03 17.8 °C 14.5 °C 1018.5 hPa Calm     81 % 0.0 mm 0.0 W/m2 CLR
03:08 17.8 °C 14.1 °C 1018.8 hPa ESE 19.3 km/h 19.3 km/h 79 % 0.0 mm 0.0 W/m2 CLR
03:13 18.9 °C 13.9 °C 1018.8 hPa SE 20.4 km/h 20.4 km/h 73 % 0.0 mm 0.0 W/m2 CLR
03:18 19.4 °C 14.1 °C 1018.8 hPa ESE 22.2 km/h 22.2 km/h 71 % 0.0 mm 0.0 W/m2 CLR
03:23 18.9 °C 13.9 °C 1018.5 hPa SE 5.6 km/h 5.6 km/h 73 % 0.0 mm 0.0 W/m2 CLR
03:28 18.9 °C 14.3 °C 1018.5 hPa ESE 14.5 km/h 14.5 km/h 75 % 0.3 mm 0.0 W/m2 RA
03:33 18.9 °C 14.3 °C 1018.5 hPa ESE 14.8 km/h 14.8 km/h 75 % 0.3 mm 0.0 W/m2 CLR
03:38 18.3 °C 14.0 °C 1018.2 hPa ESE 20.9 km/h 20.9 km/h 76 % 0.3 mm 0.0 W/m2 CLR
03:43 18.3 °C 13.8 °C 1018.2 hPa East 31.5 km/h 31.5 km/h 75 % 0.5 mm 0.0 W/m2 RA
03:48 18.3 °C 14.0 °C 1017.8 hPa East 24.1 km/h 24.1 km/h 76 % 0.5 mm 0.0 W/m2
03:53 17.8 °C 13.7 °C 1017.8 hPa East 20.4 km/h 20.4 km/h 77 % 0.5 mm 0.0 W/m2 CLR
03:58 17.8 °C 13.9 °C 1017.5 hPa ENE 11.3 km/h 11.3 km/h 78 % 0.5 mm 0.0 W/m2 CLR
04:03 17.2 °C 13.6 °C 1017.2 hPa ENE 13.0 km/h 13.0 km/h 79 % 0.5 mm 0.0 W/m2 CLR
04:08 17.2 °C 13.6 °C 1016.8 hPa NNW 9.3 km/h   79 % 0.5 mm 0.0 W/m2 CLR
04:13 17.2 °C 13.9 °C 1016.8 hPa ESE 16.7 km/h 16.7 km/h 81 % 0.5 mm 0.0 W/m2 CLR
04:18 17.2 °C 13.7 °C 1016.5 hPa ENE 18.5 km/h 18.5 km/h 80 % 0.5 mm 0.0 W/m2 CLR
04:23 17.2 °C 13.6 °C 1016.1 hPa ENE 29.0 km/h 29.0 km/h 79 % 0.5 mm 0.0 W/m2 CLR
04:28 17.2 °C 13.2 °C 1015.8 hPa ENE 24.1 km/h 24.1 km/h 77 % 0.3 mm 0.0 W/m2 CLR
04:33 17.8 °C 13.5 °C 1015.5 hPa East 22.2 km/h 22.2 km/h 76 % 0.3 mm 0.0 W/m2 CLR
04:34 17.8 °C 13.5 °C 1015.5 hPa East 20.4 km/h 20.4 km/h 76 % 0.3 mm 0.0 W/m2 CLR
04:39 17.8 °C 13.3 °C 1015.8 hPa East 24.1 km/h 24.1 km/h 75 % 0.3 mm 0.0 W/m2 CLR
04:44 18.3 °C 13.4 °C 1015.5 hPa East 20.4 km/h 20.4 km/h 73 % 0.0 mm 0.0 W/m2 CLR
04:49 18.9 °C 13.5 °C 1015.5 hPa SSE 16.7 km/h 16.7 km/h 71 % 0.0 mm 0.0 W/m2 CLR
04:54 18.9 °C 13.7 °C 1015.8 hPa SSE 9.3 km/h 9.3 km/h 72 % 0.0 mm 0.0 W/m2 CLR
04:59 18.3 °C 13.6 °C 1016.5 hPa SSW 18.5 km/h 18.5 km/h 74 % 0.0 mm 0.0 W/m2 CLR
05:04 18.3 °C 13.0 °C 1016.5 hPa South 25.9 km/h 25.9 km/h 71 % 0.0 mm 0.0 W/m2 CLR
05:10 18.9 °C 13.5 °C 1016.8 hPa SE 11.1 km/h   71 % 0.0 mm 0.0 W/m2 CLR
05:15 18.9 °C 13.5 °C 1017.2 hPa South 20.9 km/h 20.9 km/h 71 % 0.0 mm 0.0 W/m2 CLR
05:20 18.9 °C 13.5 °C 1017.2 hPa South 18.5 km/h 18.5 km/h 71 % 0.0 mm 0.0 W/m2 CLR
05:25 18.9 °C 13.7 °C 1016.8 hPa SSW 13.0 km/h 13.0 km/h 72 % 0.0 mm 0.0 W/m2 CLR
05:30 18.3 °C 13.2 °C 1016.8 hPa South 7.4 km/h 7.4 km/h 72 % 0.0 mm 0.0 W/m2 CLR
05:35 18.3 °C 13.2 °C 1016.5 hPa Calm     72 % 0.0 mm 0.0 W/m2 CLR
05:40 17.8 °C 12.9 °C 1016.8 hPa Calm     73 % 0.0 mm 0.0 W/m2 CLR
05:45 17.2 °C 12.3 °C 1016.5 hPa Calm     73 % 0.0 mm 0.0 W/m2 CLR
05:50 17.2 °C 12.6 °C 1016.5 hPa Calm     74 % 0.0 mm 0.0 W/m2 CLR
05:55 17.2 °C 12.7 °C 1016.8 hPa Calm     75 % 0.0 mm 0.0 W/m2 CLR
06:00 16.7 °C 12.4 °C 1016.5 hPa Calm     76 % 0.0 mm 0.0 W/m2 CLR
06:05 16.7 °C 12.4 °C 1016.5 hPa Calm     76 % 0.0 mm 0.0 W/m2 CLR
06:10 16.7 °C 12.4 °C 1016.5 hPa Calm     76 % 0.0 mm 0.0 W/m2 CLR
06:15 16.7 °C 12.6 °C 1016.8 hPa Calm     77 % 0.0 mm 0.0 W/m2 CLR
06:20 16.7 °C 13.0 °C 1016.8 hPa Calm     79 % 0.0 mm 0.0 W/m2 CLR
06:25 16.7 °C 13.0 °C 1017.2 hPa Calm     79 % 0.0 mm 0.0 W/m2 CLR
06:30 16.7 °C 12.6 °C 1017.2 hPa ESE 3.7 km/h   77 % 0.0 mm 0.0 W/m2 CLR
06:35 17.2 °C 12.6 °C 1016.8 hPa Calm     74 % 0.0 mm 0.0 W/m2 CLR
06:40 17.2 °C 12.7 °C 1016.8 hPa ENE 5.6 km/h 5.6 km/h 75 % 0.0 mm 0.0 W/m2 CLR
06:45 17.2 °C 12.9 °C 1016.8 hPa Calm     76 % 0.0 mm 0.0 W/m2 CLR
06:50 17.2 °C 12.9 °C 1016.8 hPa Calm     76 % 0.0 mm 0.0 W/m2 CLR
06:55 17.2 °C 12.9 °C 1016.8 hPa Calm     76 % 0.0 mm 0.0 W/m2 CLR
07:00 17.2 °C 13.2 °C 1016.8 hPa Calm     77 % 0.0 mm 0.0 W/m2 CLR
07:05 17.2 °C 13.2 °C 1016.8 hPa Calm     77 % 0.0 mm 0.0 W/m2 CLR
07:10 17.2 °C 13.2 °C 1016.8 hPa North 4.8 km/h   77 % 0.0 mm 0.0 W/m2 CLR
07:15 17.2 °C 13.3 °C 1016.8 hPa Calm     78 % 0.0 mm 0.0 W/m2 OVC
07:20 17.2 °C 13.3 °C 1016.8 hPa Calm     78 % 0.0 mm 0.0 W/m2 OVC
07:25 17.2 °C 13.6 °C 1017.2 hPa Calm     79 % 0.0 mm 0.0 W/m2 OVC
07:30 16.7 °C 13.2 °C 1017.5 hPa Calm     80 % 0.0 mm 0.0 W/m2 OVC
07:35 16.7 °C 13.0 °C 1017.5 hPa Calm     79 % 0.0 mm 7.0 W/m2 BKN
07:40 16.7 °C 13.0 °C 1017.5 hPa Calm     79 % 0.0 mm 11.0 W/m2 BKN
07:45 16.7 °C 13.0 °C 1017.5 hPa Calm     79 % 0.0 mm 12.0 W/m2 BKN
07:50 16.7 °C 13.0 °C 1017.5 hPa Calm     79 % 0.0 mm 14.0 W/m2 BKN
07:55 16.7 °C 13.0 °C 1017.5 hPa Calm     79 % 0.0 mm 18.0 W/m2 BKN
08:00 16.7 °C 13.2 °C 1017.8 hPa Calm     80 % 0.0 mm 19.0 W/m2 BKN
08:05 16.7 °C 13.4 °C 1017.8 hPa Calm     81 % 0.0 mm 30.0 W/m2 BKN
08:10 16.7 °C 13.4 °C 1017.5 hPa Calm     81 % 0.0 mm 44.0 W/m2 BKN
08:15 16.7 °C 13.6 °C 1017.5 hPa Calm     82 % 0.0 mm 37.0 W/m2 BKN
08:20 17.2 °C 13.7 °C 1017.5 hPa Calm     80 % 0.0 mm 26.0 W/m2 BKN
08:25 17.2 °C 13.9 °C 1017.2 hPa Calm     81 % 0.0 mm 33.0 W/m2 BKN
08:30 17.2 °C 13.7 °C 1017.2 hPa Calm     80 % 0.0 mm 35.0 W/m2 BKN
08:35 17.2 °C 13.7 °C 1017.2 hPa Calm     80 % 0.0 mm 35.0 W/m2 BKN
08:40 17.2 °C 13.9 °C 1017.5 hPa Calm     81 % 0.0 mm 54.0 W/m2 BKN
08:45 17.8 °C 14.3 °C 1017.2 hPa Calm     80 % 0.0 mm 176.0 W/m2 SCT
08:50 18.3 °C 15.0 °C 1016.8 hPa Calm     81 % 0.0 mm 232.0 W/m2 CLR
08:55 18.3 °C 14.8 °C 1017.2 hPa Calm     80 % 0.0 mm 98.0 W/m2 CLR
09:00 18.9 °C 15.2 °C 1017.2 hPa Calm     79 % 0.0 mm 107.0 W/m2 CLR
09:05 18.9 °C 15.2 °C 1017.2 hPa Calm     79 % 0.0 mm 76.0 W/m2 CLR
09:10 18.9 °C 15.2 °C 1016.8 hPa Calm     79 % 0.0 mm 111.0 W/m2 CLR
09:11 18.9 °C 15.2 °C 1017.2 hPa Calm     79 % 0.0 mm 111.0 W/m2 CLR
09:16 19.4 °C 15.5 °C 1017.2 hPa Calm     78 % 0.0 mm 258.0 W/m2 CLR
09:21 19.4 °C 15.1 °C 1016.8 hPa Calm     76 % 0.0 mm 274.0 W/m2 CLR
09:26 19.4 °C 15.1 °C 1016.8 hPa Calm     76 % 0.0 mm 306.0 W/m2 CLR
09:32 19.4 °C 14.9 °C 1016.5 hPa Calm     75 % 0.0 mm 62.0 W/m2 CLR
09:37 19.4 °C 14.9 °C 1016.8 hPa Calm     75 % 0.0 mm 325.0 W/m2 FEW
09:42 19.4 °C 14.7 °C 1016.8 hPa Calm     74 % 0.0 mm 353.0 W/m2 FEW
09:47 20.0 °C 14.8 °C 1017.2 hPa ESE 9.7 km/h 9.7 km/h 72 % 0.0 mm 339.0 W/m2 CLR
09:49 20.6 °C 15.1 °C 1017.2 hPa SE 14.5 km/h 14.5 km/h 71 % 0.0 mm 357.0 W/m2 CLR
09:54 21.1 °C 15.2 °C 1017.2 hPa ESE 6.4 km/h 6.4 km/h 69 % 0.0 mm 388.0 W/m2 CLR
09:59 21.7 °C 15.5 °C 1016.8 hPa East 13.0 km/h 13.0 km/h 68 % 0.0 mm 415.0 W/m2 CLR
10:04 21.7 °C 15.3 °C 1016.8 hPa ENE 14.8 km/h 14.8 km/h 67 % 0.0 mm 420.0 W/m2 CLR
10:09 22.2 °C 15.8 °C 1016.8 hPa ENE 13.0 km/h 13.0 km/h 67 % 0.0 mm 431.0 W/m2 CLR
10:14 22.2 °C 16.1 °C 1016.8 hPa ESE 9.3 km/h 9.3 km/h 68 % 0.0 mm 434.0 W/m2 CLR
10:19 22.2 °C 15.6 °C 1016.8 hPa ESE 11.1 km/h 11.1 km/h 66 % 0.0 mm 461.0 W/m2 CLR
10:24 22.8 °C 15.8 °C 1016.8 hPa East 11.3 km/h 11.3 km/h 65 % 0.0 mm 485.0 W/m2 CLR
10:25 22.8 °C 15.8 °C 1016.8 hPa East 11.3 km/h 11.3 km/h 65 % 0.0 mm 485.0 W/m2 CLR
10:30 22.8 °C 15.6 °C 1016.8 hPa SE 16.7 km/h 16.7 km/h 64 % 0.0 mm 501.0 W/m2 CLR
10:35 23.3 °C 16.1 °C 1016.8 hPa Calm     64 % 0.0 mm 513.0 W/m2 CLR
10:40 23.3 °C 15.7 °C 1016.8 hPa ESE 9.3 km/h   62 % 0.0 mm 526.0 W/m2 CLR
10:45 23.3 °C 15.4 °C 1016.8 hPa Calm     61 % 0.0 mm 554.0 W/m2 CLR
10:50 23.9 °C 16.2 °C 1016.5 hPa Calm   0.5 km/h 62 % 0.0 mm 515.0 W/m2 CLR
10:55 23.9 °C 15.7 °C 1016.5 hPa Calm     60 % 0.0 mm 492.0 W/m2 CLR
11:00 23.9 °C 15.7 °C 1016.5 hPa Calm     60 % 0.0 mm 594.0 W/m2 CLR
11:05 24.4 °C 15.9 °C 1016.5 hPa SW 11.1 km/h 11.1 km/h 59 % 0.0 mm 626.0 W/m2 CLR
11:10 24.4 °C 14.6 °C 1016.5 hPa SW 5.6 km/h   54 % 0.0 mm 626.0 W/m2 CLR
11:15 25.0 °C 14.8 °C 1016.5 hPa SE 1.9 km/h 1.9 km/h 53 % 0.0 mm 399.0 W/m2 CLR
11:20 25.0 °C 14.8 °C 1016.1 hPa Calm     53 % 0.0 mm 461.0 W/m2 CLR
11:25 25.0 °C 14.8 °C 1016.1 hPa SSE 3.7 km/h 3.7 km/h 53 % 0.0 mm 545.0 W/m2 CLR
11:30 25.0 °C 14.4 °C 1016.1 hPa Calm   1.3 km/h 52 % 0.0 mm 622.0 W/m2 CLR
11:35 25.6 °C 15.3 °C 1016.5 hPa SSW 5.6 km/h 5.6 km/h 53 % 0.0 mm 724.0 W/m2 CLR
11:40 26.1 °C 15.5 °C 1016.5 hPa South 11.3 km/h 11.3 km/h 52 % 0.0 mm 710.0 W/m2 CLR
11:45 26.1 °C 15.5 °C 1016.5 hPa SSW 20.4 km/h 20.4 km/h 52 % 0.0 mm 429.0 W/m2 CLR
11:50 26.1 °C 15.8 °C 1016.5 hPa WSW 7.4 km/h 7.4 km/h 53 % 0.0 mm 717.0 W/m2 CLR
11:55 26.1 °C 15.5 °C 1016.5 hPa SSW 14.5 km/h 14.5 km/h 52 % 0.0 mm 807.0 W/m2 CLR
12:00 26.1 °C 15.2 °C 1016.5 hPa South 13.0 km/h 13.0 km/h 51 % 0.0 mm 828.0 W/m2 CLR
12:05 26.1 °C 15.5 °C 1016.5 hPa WSW 18.5 km/h 18.5 km/h 52 % 0.0 mm 357.0 W/m2 CLR
12:10 25.6 °C 14.9 °C 1016.5 hPa SSW 14.8 km/h 14.8 km/h 52 % 0.0 mm 338.0 W/m2 CLR
12:15 25.6 °C 14.9 °C 1016.5 hPa SSW 16.7 km/h 16.7 km/h 52 % 0.0 mm 369.0 W/m2 CLR
12:20 25.6 °C 14.7 °C 1016.5 hPa South 13.0 km/h 13.0 km/h 51 % 0.0 mm 707.0 W/m2 CLR
12:25 26.1 °C 15.2 °C 1016.5 hPa Calm     51 % 0.0 mm 626.0 W/m2 CLR
12:30 26.1 °C 15.8 °C 1016.5 hPa WSW 13.0 km/h 13.0 km/h 53 % 0.0 mm 475.0 W/m2 CLR
12:35 26.1 °C 15.5 °C 1016.1 hPa SSW 9.3 km/h 9.3 km/h 52 % 0.0 mm 548.0 W/m2 CLR
12:40 26.7 °C 15.7 °C 1016.1 hPa SW 11.1 km/h 11.1 km/h 51 % 0.0 mm 786.0 W/m2 CLR
12:45 26.7 °C 16.0 °C 1016.1 hPa WSW 24.1 km/h 24.1 km/h 52 % 0.0 mm 879.0 W/m2 CLR
12:50 26.7 °C 15.7 °C 1016.1 hPa West 14.8 km/h 14.8 km/h 51 % 0.0 mm 856.0 W/m2 CLR
12:55 26.7 °C 16.0 °C 1016.1 hPa WSW 20.4 km/h 20.4 km/h 52 % 0.0 mm 828.0 W/m2 CLR
13:00 26.7 °C 15.7 °C 1016.1 hPa WNW 9.3 km/h 9.3 km/h 51 % 0.0 mm 819.0 W/m2 CLR
13:05 26.7 °C 16.0 °C 1015.8 hPa WSW 16.7 km/h 16.7 km/h 52 % 0.0 mm 772.0 W/m2 CLR
13:10 26.1 °C 15.2 °C 1015.8 hPa SW 3.7 km/h   51 % 0.0 mm 796.0 W/m2 CLR
13:15 26.7 °C 15.4 °C 1015.8 hPa NW 12.9 km/h 12.9 km/h 50 % 0.0 mm 788.0 W/m2 CLR
13:20 26.7 °C 15.4 °C 1015.8 hPa WSW 8.0 km/h 8.0 km/h 50 % 0.0 mm 782.0 W/m2 CLR
13:25 26.7 °C 15.7 °C 1015.8 hPa SW 7.4 km/h 7.4 km/h 51 % 0.0 mm 807.0 W/m2 CLR
13:30 26.7 °C 14.7 °C 1015.8 hPa West 11.1 km/h   48 % 0.0 mm 823.0 W/m2 CLR
13:35 27.2 °C 15.3 °C 1015.8 hPa Calm     48 % 0.0 mm 824.0 W/m2 CLR
13:41 27.2 °C 15.3 °C 1015.8 hPa Calm     48 % 0.0 mm 863.0 W/m2 CLR
13:46 27.8 °C 15.4 °C 1015.5 hPa Calm     47 % 0.0 mm 954.0 W/m2 CLR
13:51 27.8 °C 15.4 °C 1015.5 hPa Calm     47 % 0.0 mm 926.0 W/m2 CLR
13:56 27.2 °C 15.3 °C 1015.5 hPa Calm     48 % 0.0 mm 974.0 W/m2 CLR
14:01 27.2 °C 14.6 °C 1015.5 hPa Calm     46 % 0.0 mm 875.0 W/m2 CLR
14:06 27.2 °C 14.9 °C 1015.1 hPa NNE 7.4 km/h 7.4 km/h 47 % 0.0 mm 766.0 W/m2 CLR
14:11 27.2 °C 14.9 °C 1015.1 hPa North 3.7 km/h   47 % 0.0 mm 671.0 W/m2 CLR
14:16 27.2 °C 15.3 °C 1015.1 hPa Calm     48 % 0.0 mm 858.0 W/m2 CLR
14:21 27.8 °C 15.1 °C 1015.1 hPa Calm     46 % 0.0 mm 805.0 W/m2 CLR
14:26 27.8 °C 15.4 °C 1015.1 hPa Calm     47 % 0.0 mm 858.0 W/m2 CLR
14:31 27.8 °C 15.4 °C 1015.1 hPa North 9.3 km/h 9.3 km/h 47 % 0.0 mm 643.0 W/m2 CLR
14:36 27.2 °C 14.9 °C 1015.1 hPa West 16.7 km/h 16.7 km/h 47 % 0.0 mm 888.0 W/m2 CLR
14:41 27.8 °C 15.1 °C 1014.8 hPa NNW 14.8 km/h 14.8 km/h 46 % 0.0 mm 861.0 W/m2 CLR
14:46 27.8 °C 14.8 °C 1015.1 hPa NW 18.5 km/h 18.5 km/h 45 % 0.0 mm 837.0 W/m2 CLR
14:51 27.8 °C 14.8 °C 1015.1 hPa West 5.6 km/h 5.6 km/h 45 % 0.0 mm 856.0 W/m2 CLR
14:56 27.8 °C 15.4 °C 1015.1 hPa NNW 9.3 km/h 9.3 km/h 47 % 0.0 mm 817.0 W/m2 CLR
15:01 27.8 °C 14.8 °C 1015.1 hPa North 14.8 km/h 14.8 km/h 45 % 0.0 mm 724.0 W/m2 CLR
15:06 27.8 °C 15.1 °C 1015.1 hPa NE 9.3 km/h 9.3 km/h 46 % 0.0 mm 847.0 W/m2 CLR
15:11 27.8 °C 15.1 °C 1014.8 hPa NNE 9.3 km/h 9.3 km/h 46 % 0.0 mm 584.0 W/m2 CLR
15:16 27.8 °C 14.8 °C 1014.8 hPa NNE 7.4 km/h 7.4 km/h 45 % 0.0 mm 763.0 W/m2 CLR
15:21 28.3 °C 14.9 °C 1014.8 hPa NNE 5.6 km/h 5.6 km/h 44 % 0.0 mm 821.0 W/m2 CLR
15:26 28.3 °C 15.6 °C 1014.8 hPa Calm     46 % 0.0 mm 731.0 W/m2 CLR
15:31 28.3 °C 15.6 °C 1014.8 hPa NW 13.0 km/h 13.0 km/h 46 % 0.0 mm 765.0 W/m2 CLR
15:32 28.3 °C 15.3 °C 1014.8 hPa West 7.4 km/h   45 % 0.0 mm 765.0 W/m2 CLR
15:37 27.8 °C 15.1 °C 1014.8 hPa WNW 13.0 km/h 13.0 km/h 46 % 0.0 mm 417.0 W/m2 CLR
15:42 27.8 °C 14.8 °C 1014.4 hPa NW 12.9 km/h 12.9 km/h 45 % 0.0 mm 824.0 W/m2 CLR
15:47 28.3 °C 15.6 °C 1014.4 hPa WNW 7.4 km/h 7.4 km/h 46 % 0.0 mm 810.0 W/m2 CLR
15:52 28.3 °C 15.3 °C 1014.4 hPa NW 9.7 km/h 9.7 km/h 45 % 0.0 mm 800.0 W/m2 CLR
15:57 28.3 °C 14.9 °C 1014.4 hPa North 7.4 km/h 7.4 km/h 44 % 0.0 mm 710.0 W/m2 CLR
16:02 28.3 °C 14.9 °C 1014.1 hPa WNW 14.8 km/h 14.8 km/h 44 % 0.0 mm 686.0 W/m2 CLR
16:07 28.3 °C 15.3 °C 1014.1 hPa Calm     45 % 0.0 mm 701.0 W/m2 CLR
16:13 28.3 °C 14.9 °C 1014.1 hPa NW 14.8 km/h 14.8 km/h 44 % 0.0 mm 589.0 W/m2 CLR
16:18 27.8 °C 14.4 °C 1014.1 hPa NNW 11.1 km/h 11.1 km/h 44 % 0.0 mm 396.0 W/m2 CLR
16:23 27.2 °C 14.3 °C 1014.1 hPa NW 14.8 km/h 14.8 km/h 45 % 0.0 mm 257.0 W/m2 CLR
16:28 27.2 °C 14.6 °C 1014.1 hPa North 9.3 km/h 9.3 km/h 46 % 0.0 mm 260.0 W/m2 CLR
16:33 27.2 °C 15.9 °C 1014.1 hPa NNE 1.9 km/h 1.9 km/h 50 % 0.0 mm 237.0 W/m2 CLR
16:38 27.2 °C 16.5 °C 1014.1 hPa NE 16.7 km/h 16.7 km/h 52 % 0.0 mm 272.0 W/m2 CLR
16:43 27.2 °C 17.1 °C 1014.1 hPa NE 11.1 km/h 11.1 km/h 54 % 0.0 mm 183.0 W/m2 CLR
16:48 26.7 °C 17.2 °C 1014.1 hPa ENE 18.5 km/h 18.5 km/h 56 % 0.0 mm 169.0 W/m2 CLR
16:53 26.1 °C 16.9 °C 1014.1 hPa NE 20.4 km/h 20.4 km/h 57 % 0.0 mm 343.0 W/m2 CLR
16:58 26.7 °C 17.4 °C 1013.8 hPa NE 9.3 km/h 9.3 km/h 57 % 0.0 mm 420.0 W/m2 CLR
17:03 26.7 °C 17.4 °C 1013.8 hPa NE 14.8 km/h 14.8 km/h 57 % 0.0 mm 476.0 W/m2 CLR
17:08 27.2 °C 17.7 °C 1013.8 hPa NE 18.5 km/h 18.5 km/h 56 % 0.0 mm 415.0 W/m2 CLR
17:13 27.2 °C 17.9 °C 1013.8 hPa NE 11.1 km/h 11.1 km/h 57 % 0.0 mm 540.0 W/m2 CLR
17:18 27.2 °C 17.9 °C 1013.8 hPa NNE 14.8 km/h 14.8 km/h 57 % 0.0 mm 480.0 W/m2 CLR
17:23 27.2 °C 17.7 °C 1013.8 hPa ENE 14.5 km/h 14.5 km/h 56 % 0.0 mm 225.0 W/m2 CLR
17:28 26.7 °C 17.4 °C 1013.8 hPa NNE 14.8 km/h 14.8 km/h 57 % 0.0 mm 244.0 W/m2 CLR
17:33 26.7 °C 17.4 °C 1013.8 hPa NE 18.5 km/h 18.5 km/h 57 % 0.0 mm 142.0 W/m2 CLR
17:38 26.1 °C 17.2 °C 1013.8 hPa NE 8.0 km/h 8.0 km/h 58 % 0.0 mm 128.0 W/m2 CLR
17:43 26.1 °C 16.9 °C 1013.8 hPa ENE 5.6 km/h   57 % 0.0 mm 86.0 W/m2 CLR
17:48 26.1 °C 16.9 °C 1013.8 hPa ENE 9.7 km/h 9.7 km/h 57 % 0.0 mm 60.0 W/m2 CLR
17:53 25.6 °C 16.4 °C 1013.8 hPa East 11.1 km/h 11.1 km/h 57 % 0.0 mm 35.0 W/m2 SCT
17:58 25.6 °C 16.9 °C 1013.8 hPa ENE 12.9 km/h 12.9 km/h 59 % 0.0 mm 25.0 W/m2 BKN
18:03 25.6 °C 16.9 °C 1013.8 hPa Calm     59 % 0.0 mm 18.0 W/m2 BKN
18:08 25.0 °C 16.2 °C 1013.8 hPa NNE 5.6 km/h 5.6 km/h 58 % 0.0 mm 11.0 W/m2 BKN
18:13 25.0 °C 16.2 °C 1013.8 hPa Calm     58 % 0.0 mm 5.0 W/m2 BKN
18:18 25.0 °C 17.9 °C 1014.4 hPa West 18.5 km/h 18.5 km/h 65 % 0.0 mm 0.0 W/m2 BKN
18:23 23.9 °C 17.8 °C 1014.4 hPa SW 19.3 km/h 19.3 km/h 69 % 0.0 mm 0.0 W/m2 OVC
18:28 23.3 °C 18.4 °C 1014.8 hPa West 38.9 km/h 38.9 km/h 74 % 0.3 mm 0.0 W/m2 RA
18:33 21.7 °C 18.1 °C 1015.8 hPa SW 33.3 km/h 33.3 km/h 80 % 3.3 mm 0.0 W/m2 RA
18:38 20.0 °C 17.0 °C 1016.1 hPa SW 18.5 km/h 18.5 km/h 83 % 10.9 mm 7.0 W/m2 RA
18:48 18.3 °C 16.1 °C 1015.5 hPa North 8.0 km/h 8.0 km/h 87 % 21.1 mm 47.0 W/m2 RA
18:53 18.3 °C 16.3 °C 1015.5 hPa NNW 5.6 km/h   88 % 22.1 mm 60.0 W/m2 RA
18:59 18.3 °C 16.5 °C 1015.5 hPa Calm     89 % 22.4 mm 67.0 W/m2 RA
19:04 18.3 °C 16.7 °C 1015.1 hPa Calm     90 % 22.4 mm 60.0 W/m2 SCT
19:09 18.3 °C 16.8 °C 1015.1 hPa Calm     91 % 22.4 mm 35.0 W/m2 SCT
19:14 18.3 °C 16.8 °C 1015.1 hPa Calm     91 % 22.4 mm 25.0 W/m2 BKN
19:19 18.3 °C 16.8 °C 1015.5 hPa Calm     91 % 22.4 mm 14.0 W/m2 BKN
19:24 18.9 °C 17.4 °C 1015.5 hPa Calm     91 % 22.4 mm 7.0 W/m2 BKN
19:29 18.9 °C 17.4 °C 1015.5 hPa Calm     91 % 22.1 mm 5.0 W/m2 BKN
19:34 18.9 °C 17.4 °C 1015.8 hPa SW 18.5 km/h 18.5 km/h 91 % 19.3 mm 0.0 W/m2 BKN
19:39 18.9 °C 17.4 °C 1015.8 hPa WSW 16.7 km/h 16.7 km/h 91 % 10.7 mm 0.0 W/m2 RA
19:44 18.9 °C 17.4 °C 1015.8 hPa WSW 18.5 km/h 18.5 km/h 91 % 6.1 mm 5.0 W/m2 RA
19:49 18.9 °C 17.4 °C 1015.8 hPa SW 18.5 km/h 18.5 km/h 91 % 6.9 mm 9.0 W/m2 RA
19:54 18.9 °C 17.4 °C 1015.5 hPa Calm     91 % 7.6 mm 18.0 W/m2 RA
19:59 18.9 °C 17.4 °C 1015.1 hPa Calm     91 % 7.6 mm 25.0 W/m2 RA
20:04 18.3 °C 16.8 °C 1015.5 hPa Calm     91 % 7.6 mm 23.0 W/m2 BKN
20:09 18.3 °C 16.8 °C 1015.5 hPa Calm     91 % 7.6 mm 21.0 W/m2 BKN
20:14 18.9 °C 17.6 °C 1015.5 hPa Calm     92 % 7.6 mm 21.0 W/m2 BKN
20:19 18.9 °C 17.6 °C 1015.5 hPa Calm     92 % 7.6 mm 16.0 W/m2 BKN
20:24 18.9 °C 17.6 °C 1015.5 hPa Calm     92 % 7.6 mm 14.0 W/m2 BKN
20:29 18.3 °C 17.0 °C 1015.5 hPa Calm     92 % 7.6 mm 9.0 W/m2 BKN
20:34 18.3 °C 17.0 °C 1015.5 hPa Calm     92 % 7.6 mm 0.0 W/m2 OVC
20:39 18.3 °C 17.0 °C 1015.5 hPa Calm     92 % 6.3 mm 0.0 W/m2 OVC
20:44 18.3 °C 17.0 °C 1015.8 hPa ESE 1.6 km/h   92 % 5.3 mm 0.0 W/m2 OVC
20:49 18.3 °C 17.0 °C 1015.5 hPa Calm     92 % 1.5 mm 0.0 W/m2 CLR
20:54 18.3 °C 17.0 °C 1015.5 hPa Calm     92 % 0.3 mm 0.0 W/m2 CLR
20:59 18.3 °C 17.0 °C 1015.8 hPa Calm     92 % 0.0 mm 0.0 W/m2 CLR
21:04 18.3 °C 17.0 °C 1015.8 hPa Calm     92 % 0.0 mm 0.0 W/m2 CLR
21:09 18.3 °C 17.0 °C 1015.8 hPa Calm     92 % 0.0 mm 0.0 W/m2 CLR
21:14 17.8 °C 16.4 °C 1015.8 hPa Calm     92 % 0.0 mm 0.0 W/m2 CLR
21:19 17.8 °C 16.4 °C 1015.8 hPa Calm     92 % 0.0 mm 0.0 W/m2 CLR
21:24 18.3 °C 17.0 °C 1015.8 hPa Calm     92 % 0.0 mm 0.0 W/m2 CLR
21:29 17.8 °C 16.4 °C 1015.8 hPa Calm     92 % 0.0 mm 0.0 W/m2 CLR
21:34 17.8 °C 16.4 °C 1015.8 hPa Calm     92 % 0.0 mm 0.0 W/m2 CLR
21:39 17.8 °C 16.4 °C 1015.8 hPa ESE 14.5 km/h 14.5 km/h 92 % 0.0 mm 0.0 W/m2 CLR
21:44 17.8 °C 16.4 °C 1015.8 hPa SE 5.6 km/h   92 % 0.0 mm 0.0 W/m2 CLR
21:49 17.8 °C 16.3 °C 1015.8 hPa SSE 11.1 km/h 11.1 km/h 91 % 0.0 mm 0.0 W/m2 CLR
21:54 17.8 °C 16.3 °C 1015.8 hPa Calm     91 % 0.0 mm 0.0 W/m2 CLR
21:59 17.8 °C 16.3 °C 1015.8 hPa Calm     91 % 0.0 mm 0.0 W/m2 CLR
22:04 17.8 °C 16.3 °C 1015.8 hPa Calm     91 % 0.0 mm 0.0 W/m2 CLR
22:09 17.8 °C 16.1 °C 1015.8 hPa Calm     90 % 0.0 mm 0.0 W/m2 CLR
22:15 17.8 °C 16.3 °C 1015.8 hPa Calm     91 % 0.0 mm 0.0 W/m2 CLR
22:20 17.8 °C 16.1 °C 1015.8 hPa Calm     90 % 0.0 mm 0.0 W/m2 CLR
22:25 17.8 °C 16.1 °C 1015.8 hPa Calm     90 % 0.0 mm 0.0 W/m2 CLR
22:30 17.8 °C 15.9 °C 1015.8 hPa Calm     89 % 0.0 mm 0.0 W/m2 CLR
22:35 17.2 °C 15.4 °C 1015.8 hPa Calm     89 % 0.0 mm 0.0 W/m2 CLR
22:40 17.2 °C 15.2 °C 1015.8 hPa Calm     88 % 0.0 mm 0.0 W/m2 CLR
22:45 17.2 °C 15.2 °C 1015.8 hPa Calm     88 % 0.0 mm 0.0 W/m2 CLR
22:50 17.2 °C 15.2 °C 1015.8 hPa Calm     88 % 0.0 mm 0.0 W/m2 CLR
22:55 17.2 °C 15.2 °C 1015.8 hPa Calm     88 % 0.0 mm 0.0 W/m2 CLR
23:00 17.2 °C 15.2 °C 1015.8 hPa Calm     88 % 0.0 mm 0.0 W/m2 CLR
23:05 17.2 °C 15.4 °C 1015.8 hPa Calm     89 % 0.0 mm 0.0 W/m2 CLR
23:10 17.2 °C 15.4 °C 1015.8 hPa Calm     89 % 0.0 mm 0.0 W/m2 CLR
23:15 17.2 °C 15.6 °C 1016.1 hPa Calm     90 % 0.0 mm 0.0 W/m2 CLR
23:20 17.2 °C 15.6 °C 1016.1 hPa Calm     90 % 0.0 mm 0.0 W/m2 CLR
23:25 17.2 °C 15.6 °C 1016.1 hPa Calm     90 % 0.0 mm 0.0 W/m2 CLR
23:30 17.2 °C 15.6 °C 1015.8 hPa Calm     90 % 0.0 mm 0.0 W/m2 CLR
23:35 17.2 °C 15.7 °C 1015.8 hPa Calm     91 % 0.0 mm 0.0 W/m2 CLR
23:40 17.2 °C 15.7 °C 1015.8 hPa Calm     91 % 0.0 mm 0.0 W/m2 CLR
23:45 17.2 °C 15.7 °C 1015.8 hPa Calm     91 % 0.0 mm 0.0 W/m2 CLR
23:50 17.2 °C 15.7 °C 1015.8 hPa Calm     91 % 0.0 mm 0.0 W/m2 CLR
23:55 17.2 °C 15.7 °C 1015.8 hPa Calm     91 % 0.0 mm 0.0 W/m2 CLR
Lo Temps de Massalio
Compliments of Weather Underground - 1.25 mb